sensor_id;sensor_type;location;lat;lon;timestamp;pressure;altitude;pressure_sealevel;temperature;humidity
25947;BME280;13745;51.470;9.894;2023-04-28T00:01:08;99396.25;;;11.84;44.38
25947;BME280;13745;51.470;9.894;2023-04-28T00:03:55;99399.75;;;11.81;44.47
25947;BME280;13745;51.470;9.894;2023-04-28T00:06:41;99399.78;;;11.78;44.25
25947;BME280;13745;51.470;9.894;2023-04-28T00:09:26;99393.78;;;11.73;44.44
25947;BME280;13745;51.470;9.894;2023-04-28T00:12:11;99392.19;;;11.67;44.37
25947;BME280;13745;51.470;9.894;2023-04-28T00:14:56;99391.34;;;11.65;44.64
25947;BME280;13745;51.470;9.894;2023-04-28T00:17:41;99381.03;;;11.61;44.84
25947;BME280;13745;51.470;9.894;2023-04-28T00:20:27;99370.72;;;11.56;44.75
25947;BME280;13745;51.470;9.894;2023-04-28T00:23:12;99377.66;;;11.56;44.84
25947;BME280;13745;51.470;9.894;2023-04-28T00:25:57;99378.56;;;11.53;44.72
25947;BME280;13745;51.470;9.894;2023-04-28T00:28:42;99373.38;;;11.53;44.71
25947;BME280;13745;51.470;9.894;2023-04-28T00:31:26;99367.31;;;11.54;44.77
25947;BME280;13745;51.470;9.894;2023-04-28T00:34:11;99367.31;;;11.54;44.96
25947;BME280;13745;51.470;9.894;2023-04-28T00:36:59;99373.38;;;11.53;45.08
25947;BME280;13745;51.470;9.894;2023-04-28T00:39:44;99354.31;;;11.54;45.00
25947;BME280;13745;51.470;9.894;2023-04-28T00:42:29;99356.03;;;11.55;45.33
25947;BME280;13745;51.470;9.894;2023-04-28T00:45:15;99347.31;;;11.58;45.03
25947;BME280;13745;51.470;9.894;2023-04-28T00:47:59;99350.78;;;11.58;45.11
25947;BME280;13745;51.470;9.894;2023-04-28T00:50:45;99352.53;;;11.58;45.00
25947;BME280;13745;51.470;9.894;2023-04-28T00:53:32;99356.81;;;11.60;44.96
25947;BME280;13745;51.470;9.894;2023-04-28T00:56:18;99340.38;;;11.60;44.97
25947;BME280;13745;51.470;9.894;2023-04-28T00:59:03;99338.59;;;11.63;45.46
25947;BME280;13745;51.470;9.894;2023-04-28T01:01:48;99335.09;;;11.64;45.04
25947;BME280;13745;51.470;9.894;2023-04-28T01:04:33;99327.34;;;11.63;45.07
25947;BME280;13745;51.470;9.894;2023-04-28T01:07:18;99331.59;;;11.65;45.14
25947;BME280;13745;51.470;9.894;2023-04-28T01:10:06;99311.72;;;11.64;45.23
25947;BME280;13745;51.470;9.894;2023-04-28T01:12:52;99310.84;;;11.65;45.18
25947;BME280;13745;51.470;9.894;2023-04-28T01:15:37;99316.03;;;11.67;45.33
25947;BME280;13745;51.470;9.894;2023-04-28T01:18:23;99305.66;;;11.67;45.26
25947;BME280;13745;51.470;9.894;2023-04-28T01:21:09;99308.25;;;11.67;45.15
25947;BME280;13745;51.470;9.894;2023-04-28T01:23:56;99309.94;;;11.68;45.28
25947;BME280;13745;51.470;9.894;2023-04-28T01:26:41;99297.78;;;11.70;45.37
25947;BME280;13745;51.470;9.894;2023-04-28T01:29:27;99302.97;;;11.70;45.28
25947;BME280;13745;51.470;9.894;2023-04-28T01:32:12;99300.34;;;11.71;45.40
25947;BME280;13745;51.470;9.894;2023-04-28T01:34:57;99304.66;;;11.72;45.31
25947;BME280;13745;51.470;9.894;2023-04-28T01:37:42;99300.28;;;11.74;45.48
25947;BME280;13745;51.470;9.894;2023-04-28T01:40:28;99295.94;;;11.75;45.44
25947;BME280;13745;51.470;9.894;2023-04-28T01:43:14;99300.19;;;11.79;45.37
25947;BME280;13745;51.470;9.894;2023-04-28T01:45:59;99291.56;;;11.80;45.35
25947;BME280;13745;51.470;9.894;2023-04-28T01:48:44;99288.03;;;11.82;45.56
25947;BME280;13745;51.470;9.894;2023-04-28T01:51:30;99288.03;;;11.82;45.38
25947;BME280;13745;51.470;9.894;2023-04-28T01:54:15;99279.38;;;11.84;45.46
25947;BME280;13745;51.470;9.894;2023-04-28T01:57:02;99287.13;;;11.85;45.45
25947;BME280;13745;51.470;9.894;2023-04-28T01:59:48;99290.59;;;11.86;45.43
25947;BME280;13745;51.470;9.894;2023-04-28T02:02:33;99284.50;;;11.87;45.38
25947;BME280;13745;51.470;9.894;2023-04-28T02:05:19;99281.94;;;11.85;45.43
25947;BME280;13745;51.470;9.894;2023-04-28T02:08:05;99278.50;;;11.85;45.57
25947;BME280;13745;51.470;9.894;2023-04-28T02:10:50;99271.59;;;11.82;45.66
25947;BME280;13745;51.470;9.894;2023-04-28T02:13:36;99268.28;;;11.72;46.70
25947;BME280;13745;51.470;9.894;2023-04-28T02:16:22;99259.59;;;11.75;47.65
25947;BME280;13745;51.470;9.894;2023-04-28T02:19:07;99265.34;;;11.91;47.35
25947;BME280;13745;51.470;9.894;2023-04-28T02:21:52;99248.88;;;11.93;46.95
25947;BME280;13745;51.470;9.894;2023-04-28T02:24:37;99258.41;;;11.93;46.55
25947;BME280;13745;51.470;9.894;2023-04-28T02:27:22;99260.16;;;11.91;46.56
25947;BME280;13745;51.470;9.894;2023-04-28T02:30:08;99256.78;;;11.87;46.50
25947;BME280;13745;51.470;9.894;2023-04-28T02:32:53;99238.63;;;11.86;46.61
25947;BME280;13745;51.470;9.894;2023-04-28T02:35:38;99249.91;;;11.85;46.41
25947;BME280;13745;51.470;9.894;2023-04-28T02:38:23;99245.63;;;11.84;46.41
25947;BME280;13745;51.470;9.894;2023-04-28T02:41:08;99234.34;;;11.83;46.33
25947;BME280;13745;51.470;9.894;2023-04-28T02:43:54;99224.81;;;11.85;46.48
25947;BME280;13745;51.470;9.894;2023-04-28T02:46:41;99223.09;;;11.84;46.51
25947;BME280;13745;51.470;9.894;2023-04-28T02:49:26;99216.13;;;11.86;46.66
25947;BME280;13745;51.470;9.894;2023-04-28T02:52:11;99214.59;;;11.76;47.10
25947;BME280;13745;51.470;9.894;2023-04-28T02:54:56;99217.09;;;11.80;48.11
25947;BME280;13745;51.470;9.894;2023-04-28T02:57:42;99217.78;;;11.89;48.19
25947;BME280;13745;51.470;9.894;2023-04-28T03:00:28;99217.63;;;11.96;48.66
25947;BME280;13745;51.470;9.894;2023-04-28T03:03:14;99216.25;;;11.80;54.09
25947;BME280;13745;51.470;9.894;2023-04-28T03:05:59;99202.81;;;12.38;51.51
25947;BME280;13745;51.470;9.894;2023-04-28T03:08:45;99192.13;;;12.49;50.60
25947;BME280;13745;51.470;9.894;2023-04-28T03:11:30;99192.13;;;12.51;50.07
25947;BME280;13745;51.470;9.894;2023-04-28T03:14:15;99199.97;;;12.48;50.23
25947;BME280;13745;51.470;9.894;2023-04-28T03:17:00;99199.19;;;12.46;50.43
25947;BME280;13745;51.470;9.894;2023-04-28T03:19:47;99194.03;;;12.44;50.34
25947;BME280;13745;51.470;9.894;2023-04-28T03:22:32;99184.47;;;12.45;50.32
25947;BME280;13745;51.470;9.894;2023-04-28T03:25:17;99188.78;;;12.46;50.36
25947;BME280;13745;51.470;9.894;2023-04-28T03:28:08;99189.63;;;12.46;50.36
25947;BME280;13745;51.470;9.894;2023-04-28T03:30:54;99175.72;;;12.47;50.23
25947;BME280;13745;51.470;9.894;2023-04-28T03:33:39;99176.59;;;12.48;50.50
25947;BME280;13745;51.470;9.894;2023-04-28T03:36:27;99174.00;;;12.48;50.64
25947;BME280;13745;51.470;9.894;2023-04-28T03:39:14;99180.03;;;12.50;50.81
25947;BME280;13745;51.470;9.894;2023-04-28T03:42:00;99167.03;;;12.50;51.29
25947;BME280;13745;51.470;9.894;2023-04-28T03:44:54;99159.19;;;12.51;51.37
25947;BME280;13745;51.470;9.894;2023-04-28T03:47:39;99159.19;;;12.51;51.43
25947;BME280;13745;51.470;9.894;2023-04-28T03:50:24;99164.34;;;12.53;52.11
25947;BME280;13745;51.470;9.894;2023-04-28T03:53:10;99156.59;;;12.51;51.85
25947;BME280;13745;51.470;9.894;2023-04-28T03:55:59;99154.00;;;12.51;51.95
25947;BME280;13745;51.470;9.894;2023-04-28T03:58:44;99149.69;;;12.50;52.02
25947;BME280;13745;51.470;9.894;2023-04-28T04:01:30;99151.44;;;12.50;52.15
25947;BME280;13745;51.470;9.894;2023-04-28T04:04:15;99141.88;;;12.50;52.25
25947;BME280;13745;51.470;9.894;2023-04-28T04:07:01;99142.72;;;12.51;52.09
25947;BME280;13745;51.470;9.894;2023-04-28T04:09:48;99138.44;;;12.50;51.88
25947;BME280;13745;51.470;9.894;2023-04-28T04:12:34;99138.44;;;12.48;51.75
25947;BME280;13745;51.470;9.894;2023-04-28T04:15:19;99138.44;;;12.48;51.77
25947;BME280;13745;51.470;9.894;2023-04-28T04:18:05;99144.47;;;12.50;51.68
25947;BME280;13745;51.470;9.894;2023-04-28T04:21:19;99141.00;;;12.51;51.96
25947;BME280;13745;51.470;9.894;2023-04-28T04:24:07;99133.19;;;12.51;52.06
25947;BME280;13745;51.470;9.894;2023-04-28T04:26:53;99128.78;;;12.53;52.16
25947;BME280;13745;51.470;9.894;2023-04-28T04:29:48;99131.31;;;12.56;51.98
25947;BME280;13745;51.470;9.894;2023-04-28T04:32:33;99129.53;;;12.58;52.39
25947;BME280;13745;51.470;9.894;2023-04-28T04:35:18;99131.28;;;12.58;52.52
25947;BME280;13745;51.470;9.894;2023-04-28T04:38:03;99135.56;;;12.60;52.66
25947;BME280;13745;51.470;9.894;2023-04-28T04:40:50;99133.75;;;12.62;52.82
25947;BME280;13745;51.470;9.894;2023-04-28T04:43:37;99136.34;;;12.62;52.90
25947;BME280;13745;51.470;9.894;2023-04-28T04:46:22;99133.66;;;12.65;52.90
25947;BME280;13745;51.470;9.894;2023-04-28T04:49:07;99131.84;;;12.69;53.09
25947;BME280;13745;51.470;9.894;2023-04-28T04:51:53;99124.00;;;12.71;53.06
25947;BME280;13745;51.470;9.894;2023-04-28T04:54:38;99123.97;;;12.72;52.87
25947;BME280;13745;51.470;9.894;2023-04-28T04:57:27;99128.22;;;12.76;52.76
25947;BME280;13745;51.470;9.894;2023-04-28T05:00:48;99124.72;;;12.77;52.70
25947;BME280;13745;51.470;9.894;2023-04-28T05:03:32;99120.22;;;12.82;52.93
25947;BME280;13745;51.470;9.894;2023-04-28T05:06:18;99127.06;;;12.86;52.96
25947;BME280;13745;51.470;9.894;2023-04-28T05:09:05;99120.84;;;12.92;53.06
25947;BME280;13745;51.470;9.894;2023-04-28T05:11:50;99125.00;;;12.98;52.80
25947;BME280;13745;51.470;9.894;2023-04-28T05:14:36;99125.75;;;13.03;53.00
25947;BME280;13745;51.470;9.894;2023-04-28T05:17:22;99128.22;;;13.07;53.30
25947;BME280;13745;51.470;9.894;2023-04-28T05:20:08;99133.25;;;13.13;53.20
25947;BME280;13745;51.470;9.894;2023-04-28T05:22:54;99128.00;;;13.16;53.33
25947;BME280;13745;51.470;9.894;2023-04-28T05:25:39;99125.34;;;13.18;53.85
25947;BME280;13745;51.470;9.894;2023-04-28T05:28:25;99126.97;;;13.22;53.75
25947;BME280;13745;51.470;9.894;2023-04-28T05:31:12;99122.50;;;13.27;53.78
25947;BME280;13745;51.470;9.894;2023-04-28T05:33:58;99118.03;;;13.31;54.19
25947;BME280;13745;51.470;9.894;2023-04-28T05:36:44;99115.38;;;13.34;54.13
25947;BME280;13745;51.470;9.894;2023-04-28T05:39:30;99122.22;;;13.36;54.19
25947;BME280;13745;51.470;9.894;2023-04-28T05:42:18;99125.63;;;13.38;53.88
25947;BME280;13745;51.470;9.894;2023-04-28T05:45:05;99125.63;;;13.38;54.42
25947;BME280;13745;51.470;9.894;2023-04-28T05:47:51;99119.53;;;13.39;54.56
25947;BME280;13745;51.470;9.894;2023-04-28T05:50:38;99120.38;;;13.41;55.04
25947;BME280;13745;51.470;9.894;2023-04-28T05:53:23;99123.81;;;13.42;55.15
25947;BME280;13745;51.470;9.894;2023-04-28T05:56:09;99130.69;;;13.44;55.53
25947;BME280;13745;51.470;9.894;2023-04-28T05:58:54;99128.06;;;13.44;55.49
25947;BME280;13745;51.470;9.894;2023-04-28T06:01:39;99124.56;;;13.45;55.52
25947;BME280;13745;51.470;9.894;2023-04-28T06:04:25;99122.75;;;13.47;55.75
25947;BME280;13745;51.470;9.894;2023-04-28T06:07:12;99127.06;;;13.48;56.06
25947;BME280;13745;51.470;9.894;2023-04-28T06:09:59;99123.53;;;13.51;56.17
25947;BME280;13745;51.470;9.894;2023-04-28T06:12:44;99121.78;;;13.52;56.50
25947;BME280;13745;51.470;9.894;2023-04-28T06:15:29;99122.50;;;13.57;56.88
25947;BME280;13745;51.470;9.894;2023-04-28T06:18:14;99112.00;;;13.60;56.95
25947;BME280;13745;51.470;9.894;2023-04-28T06:21:00;99111.94;;;13.61;56.89
25947;BME280;13745;51.470;9.894;2023-04-28T06:23:46;99110.06;;;13.66;57.36
25947;BME280;13745;51.470;9.894;2023-04-28T06:26:31;99103.00;;;13.70;57.12
25947;BME280;13745;51.470;9.894;2023-04-28T06:29:17;99095.97;;;13.72;57.04
25947;BME280;13745;51.470;9.894;2023-04-28T06:32:05;99093.31;;;13.73;57.07
25947;BME280;13745;51.470;9.894;2023-04-28T06:34:50;99106.13;;;13.81;57.51
25947;BME280;13745;51.470;9.894;2023-04-28T06:37:35;99099.94;;;13.85;57.52
25947;BME280;13745;51.470;9.894;2023-04-28T06:40:22;99090.25;;;13.89;57.57
25947;BME280;13745;51.470;9.894;2023-04-28T06:43:11;99085.81;;;13.92;57.12
25947;BME280;13745;51.470;9.894;2023-04-28T06:46:05;99088.31;;;13.95;57.31
25947;BME280;13745;51.470;9.894;2023-04-28T06:48:51;99091.69;;;13.99;57.62
25947;BME280;13745;51.470;9.894;2023-04-28T06:51:36;99089.81;;;14.02;57.37
25947;BME280;13745;51.470;9.894;2023-04-28T06:54:21;99085.41;;;14.04;57.07
25947;BME280;13745;51.470;9.894;2023-04-28T06:57:07;99079.25;;;14.07;57.18
25947;BME280;13745;51.470;9.894;2023-04-28T06:59:52;99086.91;;;14.12;57.42
25947;BME280;13745;51.470;9.894;2023-04-28T07:02:37;99087.72;;;14.14;57.35
25947;BME280;13745;51.470;9.894;2023-04-28T07:05:22;99084.19;;;14.16;57.45
25947;BME280;13745;51.470;9.894;2023-04-28T07:08:07;99078.91;;;14.18;57.35
25947;BME280;13745;51.470;9.894;2023-04-28T07:10:52;99074.38;;;14.23;57.40
25947;BME280;13745;51.470;9.894;2023-04-28T07:13:38;99070.88;;;14.24;57.37
25947;BME280;13745;51.470;9.894;2023-04-28T07:16:24;99078.53;;;14.28;57.41
25947;BME280;13745;51.470;9.894;2023-04-28T07:19:09;99079.34;;;14.30;57.53
25947;BME280;13745;51.470;9.894;2023-04-28T07:21:54;99076.59;;;14.35;57.39
25947;BME280;13745;51.470;9.894;2023-04-28T07:24:39;99083.50;;;14.36;57.26
25947;BME280;13745;51.470;9.894;2023-04-28T07:27:25;99079.13;;;14.37;57.45
25947;BME280;13745;51.470;9.894;2023-04-28T07:30:12;99067.91;;;14.34;57.42
25947;BME280;13745;51.470;9.894;2023-04-28T07:32:57;99070.59;;;14.33;57.68
25947;BME280;13745;51.470;9.894;2023-04-28T07:35:42;99063.59;;;14.33;57.37
25947;BME280;13745;51.470;9.894;2023-04-28T07:38:27;99068.75;;;14.35;57.79
25947;BME280;13745;51.470;9.894;2023-04-28T07:41:12;99066.88;;;14.40;57.85
25947;BME280;13745;51.470;9.894;2023-04-28T07:43:58;99071.06;;;14.44;57.93
25947;BME280;13745;51.470;9.894;2023-04-28T07:46:44;99064.09;;;14.45;57.84
25947;BME280;13745;51.470;9.894;2023-04-28T07:49:29;99063.06;;;14.50;58.34
25947;BME280;13745;51.470;9.894;2023-04-28T07:52:15;99072.41;;;14.56;57.90
25947;BME280;13745;51.470;9.894;2023-04-28T07:55:00;99069.59;;;14.62;57.96
25947;BME280;13745;51.470;9.894;2023-04-28T07:57:47;99059.88;;;14.67;57.76
25947;BME280;13745;51.470;9.894;2023-04-28T08:00:32;99051.78;;;14.75;58.20
25947;BME280;13745;51.470;9.894;2023-04-28T08:03:18;99043.50;;;14.87;57.96
25947;BME280;13745;51.470;9.894;2023-04-28T08:06:04;99044.75;;;15.00;58.32
25947;BME280;13745;51.470;9.894;2023-04-28T08:08:49;99046.06;;;15.12;57.85
25947;BME280;13745;51.470;9.894;2023-04-28T08:11:34;99042.38;;;15.17;57.63
25947;BME280;13745;51.470;9.894;2023-04-28T08:14:19;99030.72;;;15.26;57.98
25947;BME280;13745;51.470;9.894;2023-04-28T08:17:04;99017.88;;;15.43;58.11
25947;BME280;13745;51.470;9.894;2023-04-28T08:19:51;99003.94;;;15.66;58.42
25947;BME280;13745;51.470;9.894;2023-04-28T08:22:36;99016.47;;;16.00;58.19
25947;BME280;13745;51.470;9.894;2023-04-28T08:25:22;99011.38;;;16.38;57.75
25947;BME280;13745;51.470;9.894;2023-04-28T08:28:06;99008.34;;;16.68;57.31
25947;BME280;13745;51.470;9.894;2023-04-28T08:30:52;99002.84;;;16.94;56.76
25947;BME280;13745;51.470;9.894;2023-04-28T08:33:38;99002.63;;;17.18;56.42
25947;BME280;13745;51.470;9.894;2023-04-28T08:36:28;98995.75;;;17.34;55.61
25947;BME280;13745;51.470;9.894;2023-04-28T08:39:15;99000.84;;;17.37;55.44
25947;BME280;13745;51.470;9.894;2023-04-28T08:42:02;98992.94;;;17.38;55.69
25947;BME280;13745;51.470;9.894;2023-04-28T08:44:48;98997.84;;;17.45;55.93
25947;BME280;13745;51.470;9.894;2023-04-28T08:47:36;98988.78;;;17.52;55.94
25947;BME280;13745;51.470;9.894;2023-04-28T08:50:24;98991.75;;;17.63;56.02
25947;BME280;13745;51.470;9.894;2023-04-28T08:53:12;98999.25;;;17.71;55.83
25947;BME280;13745;51.470;9.894;2023-04-28T08:55:59;98996.59;;;17.72;55.36
25947;BME280;13745;51.470;9.894;2023-04-28T08:58:44;98998.41;;;17.70;55.41
25947;BME280;13745;51.470;9.894;2023-04-28T09:01:29;98996.06;;;17.64;55.23
25947;BME280;13745;51.470;9.894;2023-04-28T09:04:15;99001.81;;;17.53;55.06
25947;BME280;13745;51.470;9.894;2023-04-28T09:07:01;98994.47;;;17.42;55.11
25947;BME280;13745;51.470;9.894;2023-04-28T09:09:48;98993.50;;;17.26;55.13
25947;BME280;13745;51.470;9.894;2023-04-28T09:12:35;98991.72;;;17.08;54.98
25947;BME280;13745;51.470;9.894;2023-04-28T09:15:26;98994.34;;;16.89;55.54
25947;BME280;13745;51.470;9.894;2023-04-28T09:18:13;98998.28;;;16.79;55.93
25947;BME280;13745;51.470;9.894;2023-04-28T09:21:02;99006.47;;;16.71;55.89
25947;BME280;13745;51.470;9.894;2023-04-28T09:23:48;99006.84;;;16.62;56.55
25947;BME280;13745;51.470;9.894;2023-04-28T09:26:48;98998.38;;;16.57;56.60
25947;BME280;13745;51.470;9.894;2023-04-28T09:29:34;99001.94;;;16.54;56.65
25947;BME280;13745;51.470;9.894;2023-04-28T09:32:22;98983.72;;;16.53;56.72
25947;BME280;13745;51.470;9.894;2023-04-28T09:35:07;98983.59;;;16.56;56.77
25947;BME280;13745;51.470;9.894;2023-04-28T09:37:57;98977.28;;;16.60;57.20
25947;BME280;13745;51.470;9.894;2023-04-28T09:40:50;98975.97;;;16.70;57.19
25947;BME280;13745;51.470;9.894;2023-04-28T09:43:37;98969.38;;;16.82;57.00
25947;BME280;13745;51.470;9.894;2023-04-28T09:46:27;98969.88;;;16.90;57.11
25947;BME280;13745;51.470;9.894;2023-04-28T09:49:13;98965.81;;;17.02;56.65
25947;BME280;13745;51.470;9.894;2023-04-28T09:52:11;98957.53;;;17.11;56.84
25947;BME280;13745;51.470;9.894;2023-04-28T09:54:56;98955.41;;;17.19;57.04
25947;BME280;13745;51.470;9.894;2023-04-28T09:57:43;98947.91;;;17.30;57.37
25947;BME280;13745;51.470;9.894;2023-04-28T10:00:32;98942.91;;;17.43;57.23
25947;BME280;13745;51.470;9.894;2023-04-28T10:03:20;98953.78;;;17.53;57.33
25947;BME280;13745;51.470;9.894;2023-04-28T10:06:05;98955.47;;;17.54;56.84
25947;BME280;13745;51.470;9.894;2023-04-28T10:08:51;98952.47;;;17.44;56.62
25947;BME280;13745;51.470;9.894;2023-04-28T10:11:36;98953.84;;;17.34;56.79
25947;BME280;13745;51.470;9.894;2023-04-28T10:14:23;98955.03;;;17.27;56.94
25947;BME280;13745;51.470;9.894;2023-04-28T10:17:12;98949.47;;;17.16;57.12
25947;BME280;13745;51.470;9.894;2023-04-28T10:19:59;98941.81;;;17.11;57.34
25947;BME280;13745;51.470;9.894;2023-04-28T10:22:53;98938.44;;;17.09;57.45
25947;BME280;13745;51.470;9.894;2023-04-28T10:25:42;98944.59;;;17.08;57.30
25947;BME280;13745;51.470;9.894;2023-04-28T10:28:28;98945.34;;;17.10;57.16
25947;BME280;13745;51.470;9.894;2023-04-28T10:31:15;98933.13;;;17.10;57.45
25947;BME280;13745;51.470;9.894;2023-04-28T10:34:20;98931.50;;;17.08;57.66
25947;BME280;13745;51.470;9.894;2023-04-28T10:37:05;98926.41;;;17.05;57.98
25947;BME280;13745;51.470;9.894;2023-04-28T10:43:33;98927.53;;;16.99;58.15
25947;BME280;13745;51.470;9.894;2023-04-28T10:46:20;98936.59;;;16.92;58.02
25947;BME280;13745;51.470;9.894;2023-04-28T10:49:05;98932.47;;;16.87;58.18
25947;BME280;13745;51.470;9.894;2023-04-28T10:51:52;98924.78;;;16.83;58.40
25947;BME280;13745;51.470;9.894;2023-04-28T10:54:38;98920.47;;;16.82;58.84
25947;BME280;13745;51.470;9.894;2023-04-28T10:57:22;98920.25;;;16.87;58.95
25947;BME280;13745;51.470;9.894;2023-04-28T11:00:28;98918.28;;;16.92;59.43
25947;BME280;13745;51.470;9.894;2023-04-28T11:03:44;98911.34;;;16.91;59.83
25947;BME280;13745;51.470;9.894;2023-04-28T11:06:34;98916.50;;;16.93;60.08
25947;BME280;13745;51.470;9.894;2023-04-28T11:09:46;98913.69;;;16.97;60.02
25947;BME280;13745;51.470;9.894;2023-04-28T11:12:32;98924.00;;;17.00;60.10
25947;BME280;13745;51.470;9.894;2023-04-28T11:15:17;98915.22;;;17.01;60.03
25947;BME280;13745;51.470;9.894;2023-04-28T11:18:02;98915.13;;;17.03;59.91
25947;BME280;13745;51.470;9.894;2023-04-28T11:20:52;98916.06;;;17.02;60.05
25947;BME280;13745;51.470;9.894;2023-04-28T11:23:41;98915.06;;;17.04;59.62
25947;BME280;13745;51.470;9.894;2023-04-28T11:26:28;98914.38;;;17.01;59.98
25947;BME280;13745;51.470;9.894;2023-04-28T11:29:14;98906.66;;;16.98;59.82
25947;BME280;13745;51.470;9.894;2023-04-28T11:31:59;98902.47;;;16.94;60.05
25947;BME280;13745;51.470;9.894;2023-04-28T11:34:50;98903.41;;;16.93;60.44
25947;BME280;13745;51.470;9.894;2023-04-28T11:37:35;98901.63;;;16.93;60.18
25947;BME280;13745;51.470;9.894;2023-04-28T11:40:21;98899.88;;;16.94;60.22
25947;BME280;13745;51.470;9.894;2023-04-28T11:43:07;98889.47;;;16.92;60.54
25947;BME280;13745;51.470;9.894;2023-04-28T11:45:53;98888.47;;;16.95;60.25
25947;BME280;13745;51.470;9.894;2023-04-28T11:48:38;98881.94;;;17.03;60.51
25947;BME280;13745;51.470;9.894;2023-04-28T11:51:28;98877.34;;;17.08;60.18
25947;BME280;13745;51.470;9.894;2023-04-28T11:54:19;98879.69;;;17.15;60.37
25947;BME280;13745;51.470;9.894;2023-04-28T11:57:05;98877.47;;;17.24;60.45
25947;BME280;13745;51.470;9.894;2023-04-28T11:59:52;98870.16;;;17.31;60.52
25947;BME280;13745;51.470;9.894;2023-04-28T12:02:37;98875.88;;;17.39;60.49
25947;BME280;13745;51.470;9.894;2023-04-28T12:05:23;98879.88;;;17.46;60.30
25947;BME280;13745;51.470;9.894;2023-04-28T12:08:08;98871.84;;;17.49;60.04
25947;BME280;13745;51.470;9.894;2023-04-28T12:11:06;98883.19;;;17.50;60.14
25947;BME280;13745;51.470;9.894;2023-04-28T12:14:02;98878.09;;;17.47;60.28
25947;BME280;13745;51.470;9.894;2023-04-28T12:16:49;98874.00;;;17.41;59.97
25947;BME280;13745;51.470;9.894;2023-04-28T12:19:42;98862.59;;;17.42;60.26
25947;BME280;13745;51.470;9.894;2023-04-28T12:22:28;98869.16;;;17.51;60.58
25947;BME280;13745;51.470;9.894;2023-04-28T12:25:15;98861.66;;;17.60;60.63
25947;BME280;13745;51.470;9.894;2023-04-28T12:28:02;98865.34;;;17.75;61.06
25947;BME280;13745;51.470;9.894;2023-04-28T12:30:47;98865.31;;;17.92;60.69
25947;BME280;13745;51.470;9.894;2023-04-28T12:33:34;98860.03;;;18.10;60.50
25947;BME280;13745;51.470;9.894;2023-04-28T12:36:20;98859.31;;;18.23;60.63
25947;BME280;13745;51.470;9.894;2023-04-28T12:39:12;98849.78;;;18.38;60.32
25947;BME280;13745;51.470;9.894;2023-04-28T12:41:59;98839.13;;;18.57;60.23
25947;BME280;13745;51.470;9.894;2023-04-28T12:44:46;98840.84;;;18.74;60.16
25947;BME280;13745;51.470;9.894;2023-04-28T12:47:31;98834.47;;;18.94;59.81
25947;BME280;13745;51.470;9.894;2023-04-28T12:50:18;98835.16;;;19.13;59.35
25947;BME280;13745;51.470;9.894;2023-04-28T12:53:03;98837.56;;;19.32;59.24
25947;BME280;13745;51.470;9.894;2023-04-28T12:55:48;98846.59;;;19.42;58.78
25947;BME280;13745;51.470;9.894;2023-04-28T12:58:33;98851.75;;;19.44;58.71
25947;BME280;13745;51.470;9.894;2023-04-28T13:01:18;98837.97;;;19.40;58.60
25947;BME280;13745;51.470;9.894;2023-04-28T13:04:03;98831.19;;;19.36;58.61
25947;BME280;13745;51.470;9.894;2023-04-28T13:06:49;98821.78;;;19.32;58.94
25947;BME280;13745;51.470;9.894;2023-04-28T13:09:35;98829.69;;;19.32;58.83
25947;BME280;13745;51.470;9.894;2023-04-28T13:12:20;98826.09;;;19.33;58.88
25947;BME280;13745;51.470;9.894;2023-04-28T13:15:08;98828.56;;;19.36;58.65
25947;BME280;13745;51.470;9.894;2023-04-28T13:17:53;98832.22;;;19.33;58.55
25947;BME280;13745;51.470;9.894;2023-04-28T13:20:38;98831.72;;;19.27;58.60
25947;BME280;13745;51.470;9.894;2023-04-28T13:23:24;98821.63;;;19.19;58.73
25947;BME280;13745;51.470;9.894;2023-04-28T13:26:10;98826.34;;;19.14;58.86
25947;BME280;13745;51.470;9.894;2023-04-28T13:28:55;98820.56;;;19.07;59.01
25947;BME280;13745;51.470;9.894;2023-04-28T13:31:40;98818.19;;;19.03;59.00
25947;BME280;13745;51.470;9.894;2023-04-28T13:34:25;98807.78;;;19.01;59.19
25947;BME280;13745;51.470;9.894;2023-04-28T13:37:11;98813.97;;;19.00;59.21
25947;BME280;13745;51.470;9.894;2023-04-28T13:39:57;98815.75;;;19.00;59.41
25947;BME280;13745;51.470;9.894;2023-04-28T13:42:42;98813.22;;;18.98;59.35
25947;BME280;13745;51.470;9.894;2023-04-28T13:45:27;98809.06;;;18.94;59.42
25947;BME280;13745;51.470;9.894;2023-04-28T13:48:12;98820.88;;;18.87;59.54
25947;BME280;13745;51.470;9.894;2023-04-28T13:50:57;98815.03;;;18.82;59.64
25947;BME280;13745;51.470;9.894;2023-04-28T13:53:42;98815.44;;;18.74;59.62
25947;BME280;13745;51.470;9.894;2023-04-28T13:56:29;98815.97;;;18.65;59.88
25947;BME280;13745;51.470;9.894;2023-04-28T13:59:15;98812.69;;;18.60;59.98
25947;BME280;13745;51.470;9.894;2023-04-28T14:01:59;98806.69;;;18.58;60.28
25947;BME280;13745;51.470;9.894;2023-04-28T14:04:44;98806.59;;;18.60;60.28
25947;BME280;13745;51.470;9.894;2023-04-28T14:07:32;98802.91;;;18.64;60.47
25947;BME280;13745;51.470;9.894;2023-04-28T14:10:17;98809.59;;;18.69;60.67
25947;BME280;13745;51.470;9.894;2023-04-28T14:13:03;98809.59;;;18.69;60.53
25947;BME280;13745;51.470;9.894;2023-04-28T14:15:50;98803.69;;;18.66;60.52
25947;BME280;13745;51.470;9.894;2023-04-28T14:18:35;98798.44;;;18.66;60.60
25947;BME280;13745;51.470;9.894;2023-04-28T14:21:21;98794.03;;;18.66;60.72
25947;BME280;13745;51.470;9.894;2023-04-28T14:24:05;98793.09;;;18.67;60.70
25947;BME280;13745;51.470;9.894;2023-04-28T14:26:53;98795.28;;;18.75;60.63
25947;BME280;13745;51.470;9.894;2023-04-28T14:29:39;98783.00;;;18.75;60.86
25947;BME280;13745;51.470;9.894;2023-04-28T14:32:25;98788.94;;;18.79;60.79
25947;BME280;13745;51.470;9.894;2023-04-28T14:35:11;98796.03;;;18.77;60.75
25947;BME280;13745;51.470;9.894;2023-04-28T14:37:56;98796.81;;;18.79;60.85
25947;BME280;13745;51.470;9.894;2023-04-28T14:40:42;98785.38;;;18.80;60.98
25947;BME280;13745;51.470;9.894;2023-04-28T14:43:27;98774.88;;;18.80;60.92
25947;BME280;13745;51.470;9.894;2023-04-28T14:46:14;98781.06;;;18.79;60.98